Sylvester, GA

2:57 AM EST on February 09, 2016 (GMT -0500)
Gordy | | Change Station
CLOSE
Current Station
Personal Weather Station
Location: Sylvester, GA
Elevation: 430 ft
Nearby Weather Stations
Active Advisory: Freeze Watch

Elev 430 ft 31.49 °N, 83.87 °W | Updated 5 minutes ago

Clear
Clear
39.7 °F
Feels Like 34 °F
N
8.9
Wind Variable Wind from WSW

Today
High -- | Low -- °F
--% Chance of Precip.
Yesterday
High -- | Low -- °F
Precip. -- in
Pressure 29.95 in
Visibility 10.0 miles
Clouds Clear
Windchill 34 °F
Dew Point 25 °F
Humidity 55%
Rainfall 0.00 in
Snow Depth Not available.
7:22 AM 6:16 PM
New Moon, 1% visible
METAR KABY 090753Z AUTO 27008KT 10SM CLR 04/M05 A2995 RMK AO2 SLP142 T00441050
Pressure 29.95 in
Visibility 10.0 miles
Clouds Clear
Windchill 34 °F
Dew Point 25 °F
Humidity 55%
Rainfall 0.00 in
Snow Depth Not available.
7:22 AM 6:16 PM
New Moon, 1% visible
METAR KABY 090753Z AUTO 27008KT 10SM CLR 04/M05 A2995 RMK AO2 SLP142 T00441050

10-Day Weather Forecast

Almanac

Astronomy

Feb. 09, 2016 Rise Set
Actual Time
Civil Twilight
Nautical Twilight
Astronomical Twilight
Moon
Length of Visible Light
Length of Day
Tomorrow will be .
, % of the Moon is Illuminated

Today's Extremes

State Highs State Lows

Community

WunderPhotos

Upload Photos

1,891,571 photos uploaded!

WunderBlog® & News

Nearby

Air Quality

  Air Quality AQ Index Pollutant
Not available.

Snow Depth

Station Depth Elevation

Earthquake Activity

City Distance Mag. Time & Date
Minimum magnitude displayed is 2.5.

Coastal Water Temperatures

Place Temperature

Stations

Nearby Weather Stations

Station Location Temp. Windchill Dew Point Humidity Wind Precip. Elev Updated Type
                   

Watches & Warnings

Freeze Watch
Issued: 6:45 PM CST Feb. 8, 2016 – National Weather Service

... Freeze watch remains in effect from late Tuesday night through
Wednesday morning...

* this afternoon: west winds 20 to 25 mph with gusts near 40 mph
possible.

* Tuesday night and early Wednesday morning: lows 26 to 31
degrees... coldest in Alabama and Georgia.

Precautionary/preparedness actions...

A Wind Advisory means that sustained winds of 26 mph or peak
gusts to 40 mph are expected. Winds this strong can make driving
difficult... especially for high profile vehicles. Use extra
caution.

A freeze watch means sub-freezing temperatures are possible.
These conditions could kill crops and other sensitive vegetation.